createdAt,value
2023-01-28T04:38:15.473Z,70.64
2023-01-28T04:40:41.833Z,70.21
2023-01-28T04:43:09.023Z,70.20
2023-01-28T04:45:35.334Z,69.96
2023-01-28T04:48:01.667Z,69.96
2023-01-28T04:50:28.058Z,70.05
2023-01-28T04:52:54.342Z,69.61
2023-01-28T04:55:20.682Z,69.98
2023-01-28T04:57:48.177Z,69.96
2023-01-28T05:00:14.784Z,69.85
2023-01-28T05:02:41.179Z,70.10
2023-01-28T05:05:08.926Z,69.84
2023-01-28T05:07:36.281Z,70.06
2023-01-28T05:10:03.130Z,70.00
2023-01-28T05:12:30.397Z,70.26
2023-01-28T05:14:56.751Z,69.87
2023-01-28T05:17:23.064Z,69.88
2023-01-28T05:19:49.665Z,69.77
2023-01-28T05:22:15.955Z,70.06
2023-01-28T05:24:42.302Z,70.13
2023-01-28T05:27:08.720Z,70.25
2023-01-28T05:29:35.100Z,70.50
2023-01-28T05:32:01.593Z,69.92
2023-01-28T05:34:28.052Z,69.65
2023-01-28T05:36:54.350Z,69.49
2023-01-28T05:39:20.667Z,69.26
2023-01-28T05:41:47.009Z,69.24
2023-01-28T05:44:13.435Z,69.15
2023-01-28T05:46:45.165Z,69.06
2023-01-28T05:49:13.398Z,69.64
2023-01-28T05:51:40.329Z,69.57
2023-01-28T05:54:07.541Z,69.53
2023-01-28T05:56:35.003Z,68.95
2023-01-28T05:59:01.403Z,68.81
2023-01-28T06:01:27.800Z,68.84
2023-01-28T06:03:54.240Z,69.19
2023-01-28T06:06:20.735Z,69.32
2023-01-28T06:08:47.200Z,69.31
2023-01-28T06:11:13.531Z,69.20
2023-01-28T06:13:41.599Z,69.06
2023-01-28T06:16:08.185Z,68.87
2023-01-28T06:18:34.537Z,68.98
2023-01-28T06:21:00.873Z,69.08
2023-01-28T06:23:27.210Z,69.00
2023-01-28T06:25:55.056Z,68.72
2023-01-28T06:28:21.581Z,69.05
2023-01-28T06:30:49.697Z,68.68
2023-01-28T06:33:16.299Z,68.85
2023-01-28T06:35:42.783Z,68.68
2023-01-28T06:38:09.443Z,68.73
2023-01-28T06:40:35.825Z,69.08
2023-01-28T06:43:02.230Z,68.65
2023-01-28T06:45:28.713Z,68.87
2023-01-28T06:47:55.310Z,68.56
2023-01-28T06:50:21.676Z,68.47
2023-01-28T06:52:47.996Z,68.11
2023-01-28T06:55:14.434Z,68.12
2023-01-28T06:57:41.693Z,68.62
2023-01-28T07:00:10.542Z,67.71
2023-01-28T07:02:37.713Z,67.79
2023-01-28T07:05:05.068Z,67.69
2023-01-28T07:07:31.534Z,67.92
2023-01-28T07:09:58.059Z,67.88
2023-01-28T07:12:24.600Z,67.85
2023-01-28T07:14:50.954Z,68.01
2023-01-28T07:17:17.312Z,68.37
2023-01-28T07:19:43.635Z,67.87
2023-01-28T07:22:09.960Z,67.69
2023-01-28T07:24:36.269Z,67.99
2023-01-28T07:27:03.555Z,67.92
2023-01-28T07:29:30.066Z,68.12
2023-01-28T07:31:56.416Z,68.16
2023-01-28T07:34:22.800Z,68.54
2023-01-28T07:36:49.124Z,68.56
2023-01-28T07:39:15.432Z,68.71
2023-01-28T07:41:41.849Z,68.73
2023-01-28T07:44:08.165Z,68.83
2023-01-28T07:46:34.459Z,68.31
2023-01-28T07:49:00.887Z,68.49
2023-01-28T07:51:27.190Z,68.70
2023-01-28T07:53:53.503Z,68.68
2023-01-28T07:56:19.850Z,68.89
2023-01-28T07:58:49.798Z,67.72
2023-01-28T08:01:16.207Z,68.62
2023-01-28T08:03:42.585Z,68.14
2023-01-28T08:06:09.066Z,68.37
2023-01-28T08:08:35.379Z,68.47
2023-01-28T08:11:08.770Z,67.62
2023-01-28T08:13:35.627Z,68.78
2023-01-28T08:16:02.369Z,68.45
2023-01-28T08:18:29.077Z,68.57
2023-01-28T08:20:56.869Z,68.45
2023-01-28T08:23:24.522Z,68.64
2023-01-28T08:25:50.974Z,68.14
2023-01-28T08:28:17.944Z,68.19
2023-01-28T08:30:44.853Z,68.24
2023-01-28T08:33:13.297Z,67.79
2023-01-28T08:35:40.390Z,67.77
2023-01-28T08:38:07.871Z,68.01
2023-01-28T08:40:34.878Z,68.52
2023-01-28T08:43:01.386Z,68.28
2023-01-28T08:45:28.650Z,67.97
2023-01-28T08:47:57.795Z,67.68
2023-01-28T08:50:27.564Z,68.17
2023-01-28T08:52:58.588Z,67.10
2023-01-28T08:55:26.650Z,68.28
2023-01-28T08:57:53.473Z,68.66
2023-01-28T09:00:21.020Z,68.33
2023-01-28T09:02:47.866Z,68.23
2023-01-28T09:05:15.194Z,68.15
2023-01-28T09:07:41.654Z,68.17
2023-01-28T09:10:09.053Z,68.06
2023-01-28T09:12:36.489Z,67.76
2023-01-28T09:15:03.438Z,67.78
2023-01-28T09:17:29.790Z,68.12
2023-01-28T09:19:56.074Z,67.77
2023-01-28T09:22:22.691Z,67.99
2023-01-28T09:24:48.981Z,68.33
2023-01-28T09:27:15.439Z,68.10
2023-01-28T09:29:41.778Z,68.23
2023-01-28T09:32:08.326Z,68.39
2023-01-28T09:34:34.767Z,68.07
2023-01-28T09:37:01.597Z,68.04
2023-01-28T09:39:30.858Z,67.87
2023-01-28T09:42:15.396Z,64.99
2023-01-28T09:44:54.009Z,66.53
2023-01-28T09:47:43.076Z,64.82
2023-01-28T09:50:39.798Z,66.43
2023-01-28T09:53:15.929Z,66.21
2023-01-28T09:55:54.579Z,65.71
2023-01-28T09:58:20.929Z,68.02
2023-01-28T10:01:04.479Z,65.32
2023-01-28T10:03:36.666Z,68.03
2023-01-28T10:06:14.756Z,65.36
2023-01-28T10:09:05.119Z,65.46
2023-01-28T10:11:40.427Z,65.66
2023-01-28T10:14:30.718Z,64.45
2023-01-28T10:17:16.504Z,64.61
2023-01-28T10:19:49.002Z,65.80
2023-01-28T10:22:31.057Z,64.40
2023-01-28T10:25:06.137Z,67.45
2023-01-28T10:27:35.999Z,67.26
2023-01-28T10:30:17.860Z,64.75
2023-01-28T10:32:52.382Z,65.38
2023-01-28T10:35:19.457Z,66.73
2023-01-28T10:37:46.390Z,67.09
2023-01-28T10:40:17.253Z,66.20
2023-01-28T10:42:44.927Z,66.95
2023-01-28T10:45:20.240Z,64.51
2023-01-28T10:47:54.377Z,65.68
2023-01-28T10:50:24.838Z,66.27
2023-01-28T10:53:00.228Z,64.79
2023-01-28T10:55:31.945Z,65.65
2023-01-28T10:57:59.269Z,66.81
2023-01-28T11:00:30.845Z,65.67
2023-01-28T11:02:57.828Z,66.77
2023-01-28T11:05:29.554Z,65.05
2023-01-28T11:08:15.745Z,64.15
2023-01-28T11:10:43.476Z,66.94
2023-01-28T11:13:26.436Z,64.16
2023-01-28T11:16:04.129Z,67.01
2023-01-28T11:18:35.036Z,66.63
2023-01-28T11:21:04.668Z,67.04
2023-01-28T11:23:34.720Z,67.48
2023-01-28T11:26:05.848Z,68.03
2023-01-28T11:28:32.977Z,68.48
2023-01-28T11:31:03.388Z,67.73
2023-01-28T11:33:37.859Z,66.20
2023-01-28T11:36:08.429Z,66.36
2023-01-28T11:38:35.167Z,66.18
2023-01-28T11:41:01.645Z,65.88
2023-01-28T11:43:30.854Z,66.10
2023-01-28T11:46:00.946Z,67.10
2023-01-28T11:48:45.544Z,63.31
2023-01-28T11:51:33.241Z,65.42
2023-01-28T11:54:04.866Z,68.85
2023-01-28T11:56:40.765Z,67.39
2023-01-28T11:59:32.169Z,64.59
2023-01-28T12:02:01.523Z,70.26
2023-01-28T12:04:34.160Z,69.18
2023-01-28T12:07:21.306Z,61.74
2023-01-28T12:09:56.860Z,60.63
2023-01-28T12:12:52.703Z,58.40
2023-01-28T12:15:50.077Z,56.48
2023-01-28T12:18:31.382Z,59.81
2023-01-28T12:21:10.602Z,56.00
2023-01-28T12:23:58.393Z,56.64
2023-01-28T12:26:28.069Z,57.07
2023-01-28T12:29:01.183Z,58.05
2023-01-28T12:31:35.497Z,57.40
2023-01-28T12:34:17.248Z,57.60
2023-01-28T12:36:58.956Z,60.56
2023-01-28T12:39:25.389Z,60.15
2023-01-28T12:42:20.592Z,55.84
2023-01-28T12:44:53.201Z,57.51
2023-01-28T12:47:28.204Z,56.93
2023-01-28T12:50:02.047Z,57.63
2023-01-28T12:52:34.032Z,58.42
2023-01-28T12:55:28.680Z,57.28
2023-01-28T12:57:58.945Z,59.13
2023-01-28T13:00:30.201Z,58.80
2023-01-28T13:03:19.804Z,57.22
2023-01-28T13:05:57.857Z,57.78
2023-01-28T13:08:27.281Z,59.95
2023-01-28T13:10:56.762Z,60.18
2023-01-28T13:13:34.979Z,58.34
2023-01-28T13:16:02.847Z,60.51
2023-01-28T13:18:44.539Z,57.50
2023-01-28T13:21:25.207Z,58.23
2023-01-28T13:24:10.026Z,57.98
2023-01-28T13:26:44.087Z,58.87
2023-01-28T13:29:21.933Z,59.06
2023-01-28T13:31:52.373Z,61.41
2023-01-28T13:34:51.010Z,59.01
2023-01-28T13:37:40.544Z,59.15
2023-01-28T13:40:13.148Z,59.79
2023-01-28T13:42:40.581Z,62.49
2023-01-28T13:45:16.526Z,59.48
2023-01-28T13:47:50.336Z,61.10
2023-01-28T13:50:42.162Z,58.74
2023-01-28T13:53:41.835Z,58.76
2023-01-28T13:56:19.812Z,59.44
2023-01-28T13:59:04.543Z,59.05
2023-01-28T14:01:51.264Z,59.94
2023-01-28T14:04:49.913Z,59.13
2023-01-28T14:07:43.317Z,60.29
2023-01-28T14:10:23.090Z,59.30
2023-01-28T14:12:52.431Z,62.21
2023-01-28T14:15:49.803Z,60.11
2023-01-28T14:18:22.525Z,60.76
2023-01-28T14:20:49.698Z,62.75
2023-01-28T14:23:19.249Z,62.21
2023-01-28T14:26:15.162Z,60.12
2023-01-28T14:29:00.351Z,62.47
2023-01-28T14:31:32.471Z,61.98
2023-01-28T14:34:20.092Z,61.41
2023-01-28T14:36:48.892Z,62.68
2023-01-28T14:39:43.411Z,61.05
2023-01-28T14:42:29.953Z,61.13
2023-01-28T14:45:39.839Z,61.28
2023-01-28T14:48:19.740Z,62.17
2023-01-28T14:51:07.574Z,61.28
2023-01-28T14:53:58.811Z,60.56
2023-01-28T14:56:36.699Z,63.41
2023-01-28T14:59:16.040Z,61.96
2023-01-28T15:01:49.449Z,61.86
2023-01-28T15:04:45.872Z,61.15
2023-01-28T15:07:23.669Z,61.86
2023-01-28T15:10:41.160Z,61.59
2023-01-28T15:13:13.874Z,63.22
2023-01-28T15:15:41.541Z,64.37
2023-01-28T15:18:33.130Z,61.68
2023-01-28T15:21:01.749Z,63.53
2023-01-28T15:23:33.305Z,62.87
2023-01-28T15:26:21.645Z,61.79
2023-01-28T15:28:49.577Z,63.79
2023-01-28T15:31:22.997Z,62.94
2023-01-28T15:34:13.715Z,61.98
2023-01-28T15:36:40.737Z,63.99
2023-01-28T15:39:41.049Z,62.73
2023-01-28T15:42:29.355Z,62.62
2023-01-28T15:44:58.287Z,64.20
2023-01-28T15:47:33.981Z,62.21
2023-01-28T15:50:04.669Z,63.61
2023-01-28T15:52:37.710Z,62.82
2023-01-28T15:55:24.081Z,63.92
2023-01-28T15:58:30.284Z,62.65
2023-01-28T16:01:26.596Z,61.98
2023-01-28T16:04:07.205Z,62.41
2023-01-28T16:06:46.864Z,62.74
2023-01-28T16:09:43.780Z,62.40
2023-01-28T16:12:13.936Z,63.09
2023-01-28T16:15:05.914Z,62.46
2023-01-28T16:17:44.540Z,62.68
2023-01-28T16:20:24.369Z,62.69
2023-01-28T16:22:54.568Z,63.77
2023-01-28T16:25:21.075Z,63.67
2023-01-28T16:27:48.368Z,64.03
2023-01-28T16:30:31.477Z,64.02
2023-01-28T16:33:03.563Z,62.81
2023-01-28T16:35:52.051Z,63.53
2023-01-28T16:38:19.780Z,64.63
2023-01-28T16:40:47.329Z,64.72
2023-01-28T16:43:15.522Z,64.92
2023-01-28T16:45:42.600Z,64.73
2023-01-28T16:48:08.966Z,65.06
2023-01-28T16:50:38.620Z,65.24
2023-01-28T16:53:06.124Z,65.43
2023-01-28T16:55:32.596Z,65.60
2023-01-28T16:57:59.085Z,65.31
2023-01-28T17:00:27.520Z,65.06
2023-01-28T17:02:54.675Z,65.34
2023-01-28T17:05:27.418Z,65.23
2023-01-28T17:07:56.253Z,65.29
2023-01-28T17:10:22.656Z,65.56
2023-01-28T17:12:49.128Z,65.49
2023-01-28T17:15:15.950Z,65.47
2023-01-28T17:17:42.402Z,65.75
2023-01-28T17:20:09.555Z,65.66
2023-01-28T17:22:36.401Z,65.52
2023-01-28T17:25:02.786Z,65.47
2023-01-28T17:27:29.262Z,65.89
2023-01-28T17:29:55.623Z,65.47
2023-01-28T17:32:23.202Z,65.60
2023-01-28T17:34:49.784Z,66.01
2023-01-28T17:37:16.434Z,66.06
2023-01-28T17:39:43.065Z,66.07
2023-01-28T17:42:09.639Z,66.20
2023-01-28T17:44:36.081Z,66.00
2023-01-28T17:47:02.667Z,66.71
2023-01-28T17:49:30.192Z,66.42
2023-01-28T17:51:56.644Z,66.54
2023-01-28T17:54:26.773Z,66.11
2023-01-28T17:56:53.338Z,66.67
2023-01-28T17:59:21.112Z,66.63
2023-01-28T18:01:49.375Z,66.86
2023-01-28T18:04:15.888Z,66.76
2023-01-28T18:06:42.428Z,67.28
2023-01-28T18:09:09.268Z,66.77
2023-01-28T18:11:35.906Z,67.17
2023-01-28T18:14:02.382Z,66.61
2023-01-28T18:16:28.872Z,66.77
2023-01-28T18:18:55.356Z,66.79
2023-01-28T18:21:56.937Z,66.61
2023-01-28T18:24:25.666Z,66.80
2023-01-28T18:26:55.391Z,66.99
2023-01-28T18:29:23.966Z,67.03
2023-01-28T18:31:55.195Z,66.39
2023-01-28T18:34:26.723Z,65.43
2023-01-28T18:36:53.697Z,66.59
2023-01-28T18:39:21.632Z,66.41
2023-01-28T18:41:48.032Z,66.19
2023-01-28T18:44:16.209Z,66.08
2023-01-28T18:46:42.948Z,66.01
2023-01-28T18:49:09.460Z,66.46
2023-01-28T18:51:35.970Z,66.62
2023-01-28T18:54:04.524Z,66.32
2023-01-28T18:56:31.735Z,66.22
2023-01-28T18:58:59.824Z,66.33
2023-01-28T19:01:27.059Z,66.48
2023-01-28T19:03:57.913Z,65.60
2023-01-28T19:06:25.670Z,66.46
2023-01-28T19:08:58.033Z,65.30
2023-01-28T19:11:26.435Z,66.34
2023-01-28T19:13:52.925Z,66.13
2023-01-28T19:16:20.793Z,66.19
2023-01-28T19:18:55.474Z,65.32
2023-01-28T19:21:24.900Z,66.21
2023-01-28T19:24:03.262Z,64.31
2023-01-28T19:26:31.479Z,66.24
2023-01-28T19:28:58.844Z,66.65
2023-01-28T19:31:26.470Z,66.38
2023-01-28T19:33:58.126Z,66.41
2023-01-28T19:36:26.822Z,66.36
2023-01-28T19:38:56.943Z,66.25
2023-01-28T19:41:23.692Z,66.39
2023-01-28T19:43:50.221Z,66.33
2023-01-28T19:46:17.612Z,66.08
2023-01-28T19:48:44.931Z,66.24
2023-01-28T19:51:13.432Z,65.95
2023-01-28T19:53:41.337Z,66.22
2023-01-28T19:56:10.725Z,65.79
2023-01-28T19:58:39.542Z,65.80
2023-01-28T20:01:07.485Z,66.04
2023-01-28T20:03:34.600Z,66.04
2023-01-28T20:06:02.577Z,65.70
2023-01-28T20:08:29.467Z,65.83
2023-01-28T20:11:15.576Z,64.79
2023-01-28T20:13:43.872Z,65.50
2023-01-28T20:16:21.384Z,64.75
2023-01-28T20:18:56.232Z,64.41
2023-01-28T20:21:23.535Z,66.18
2023-01-28T20:23:52.232Z,66.33
2023-01-28T20:26:23.952Z,66.04
2023-01-28T20:28:51.420Z,66.08
2023-01-28T20:31:19.146Z,66.08
2023-01-28T20:33:45.710Z,66.20
2023-01-28T20:36:13.942Z,66.11
2023-01-28T20:38:45.368Z,66.20
2023-01-28T20:41:17.363Z,66.06
2023-01-28T20:43:44.958Z,65.96
2023-01-28T20:46:14.431Z,66.10
2023-01-28T20:48:41.705Z,66.11
2023-01-28T20:51:13.221Z,65.46
2023-01-28T20:53:40.285Z,66.34
2023-01-28T20:56:07.939Z,66.32
2023-01-28T20:58:34.415Z,66.04
2023-01-28T21:01:01.378Z,66.06
2023-01-28T21:03:27.924Z,66.41
2023-01-28T21:05:54.455Z,66.36
2023-01-28T21:08:20.989Z,65.76
2023-01-28T21:10:47.825Z,65.69
2023-01-28T21:13:15.432Z,65.69
2023-01-28T21:15:52.102Z,65.06
2023-01-28T21:18:18.612Z,65.89
2023-01-28T21:20:45.045Z,66.40
2023-01-28T21:23:14.985Z,66.48
2023-01-28T21:25:42.599Z,65.93
2023-01-28T21:28:13.445Z,65.68
2023-01-28T21:30:40.022Z,66.03
2023-01-28T21:33:06.608Z,65.88
2023-01-28T21:35:40.615Z,65.40
2023-01-28T21:38:07.357Z,65.90
2023-01-28T21:40:35.058Z,65.85
2023-01-28T21:43:02.023Z,66.10
2023-01-28T21:45:28.526Z,66.15
2023-01-28T21:47:55.095Z,65.59
2023-01-28T21:50:23.057Z,65.66
2023-01-28T21:52:51.012Z,65.61
2023-01-28T21:55:18.499Z,65.73
2023-01-28T21:57:45.001Z,66.01
2023-01-28T22:00:12.976Z,65.66
2023-01-28T22:02:39.965Z,66.12
2023-01-28T22:05:07.091Z,65.63
2023-01-28T22:07:33.555Z,65.87
2023-01-28T22:09:59.910Z,65.98
2023-01-28T22:12:28.150Z,65.61
2023-01-28T22:14:54.917Z,65.83
2023-01-28T22:17:21.464Z,66.17
2023-01-28T22:19:48.258Z,65.98
2023-01-28T22:22:15.836Z,66.63
2023-01-28T22:24:42.436Z,66.74
2023-01-28T22:27:09.372Z,66.17
2023-01-28T22:29:35.831Z,66.33
2023-01-28T22:32:04.684Z,66.22
2023-01-28T22:34:31.403Z,66.45
2023-01-28T22:36:57.949Z,66.49
